sensor_id;sensor_type;location;lat;lon;timestamp;temperature;humidity
23081;DHT22;11708;50.570;8.532;2023-01-10T00:01:11;6.10;99.90
23081;DHT22;11708;50.570;8.532;2023-01-10T00:03:37;6.10;99.90
23081;DHT22;11708;50.570;8.532;2023-01-10T00:06:03;6.10;99.90
23081;DHT22;11708;50.570;8.532;2023-01-10T00:08:28;6.00;99.90
23081;DHT22;11708;50.570;8.532;2023-01-10T00:10:53;6.00;99.90
23081;DHT22;11708;50.570;8.532;2023-01-10T00:13:19;6.00;99.90
23081;DHT22;11708;50.570;8.532;2023-01-10T00:15:49;6.00;99.90
23081;DHT22;11708;50.570;8.532;2023-01-10T00:18:15;6.00;99.90
23081;DHT22;11708;50.570;8.532;2023-01-10T00:20:40;6.00;99.90
23081;DHT22;11708;50.570;8.532;2023-01-10T00:23:08;5.80;99.90
23081;DHT22;11708;50.570;8.532;2023-01-10T00:28:00;5.90;99.90
23081;DHT22;11708;50.570;8.532;2023-01-10T00:30:29;5.90;99.90
23081;DHT22;11708;50.570;8.532;2023-01-10T00:32:55;5.90;99.90
23081;DHT22;11708;50.570;8.532;2023-01-10T00:35:21;5.90;99.90
23081;DHT22;11708;50.570;8.532;2023-01-10T00:37:47;5.90;99.90
23081;DHT22;11708;50.570;8.532;2023-01-10T00:40:12;5.90;99.90
23081;DHT22;11708;50.570;8.532;2023-01-10T00:42:38;5.80;99.90
23081;DHT22;11708;50.570;8.532;2023-01-10T00:45:36;5.80;99.90
23081;DHT22;11708;50.570;8.532;2023-01-10T00:48:01;5.80;99.90
23081;DHT22;11708;50.570;8.532;2023-01-10T00:50:27;5.80;99.90
23081;DHT22;11708;50.570;8.532;2023-01-10T00:52:52;5.80;99.90
23081;DHT22;11708;50.570;8.532;2023-01-10T00:55:18;5.90;99.90
23081;DHT22;11708;50.570;8.532;2023-01-10T00:57:43;5.80;99.90
23081;DHT22;11708;50.570;8.532;2023-01-10T01:00:09;5.80;99.90
23081;DHT22;11708;50.570;8.532;2023-01-10T01:02:36;5.80;99.90
23081;DHT22;11708;50.570;8.532;2023-01-10T01:05:06;5.80;99.90
23081;DHT22;11708;50.570;8.532;2023-01-10T01:07:31;5.80;99.90
23081;DHT22;11708;50.570;8.532;2023-01-10T01:09:57;5.90;99.90
23081;DHT22;11708;50.570;8.532;2023-01-10T01:12:41;5.90;99.90
23081;DHT22;11708;50.570;8.532;2023-01-10T01:15:07;5.90;99.90
23081;DHT22;11708;50.570;8.532;2023-01-10T01:17:32;5.90;99.90
23081;DHT22;11708;50.570;8.532;2023-01-10T01:19:58;5.90;99.90
23081;DHT22;11708;50.570;8.532;2023-01-10T01:22:23;5.90;99.90
23081;DHT22;11708;50.570;8.532;2023-01-10T01:24:49;5.90;99.90
23081;DHT22;11708;50.570;8.532;2023-01-10T01:27:14;5.90;99.90
23081;DHT22;11708;50.570;8.532;2023-01-10T01:29:40;5.90;99.90
23081;DHT22;11708;50.570;8.532;2023-01-10T01:32:05;5.80;99.90
23081;DHT22;11708;50.570;8.532;2023-01-10T01:34:31;5.90;99.90
23081;DHT22;11708;50.570;8.532;2023-01-10T01:36:56;5.90;99.90
23081;DHT22;11708;50.570;8.532;2023-01-10T01:39:23;5.90;99.90
23081;DHT22;11708;50.570;8.532;2023-01-10T01:41:49;6.10;99.90
23081;DHT22;11708;50.570;8.532;2023-01-10T01:44:30;6.00;99.90
23081;DHT22;11708;50.570;8.532;2023-01-10T01:47:04;6.00;99.90
23081;DHT22;11708;50.570;8.532;2023-01-10T01:49:32;6.00;99.90
23081;DHT22;11708;50.570;8.532;2023-01-10T01:52:02;6.00;99.90
23081;DHT22;11708;50.570;8.532;2023-01-10T01:54:30;6.00;99.90
23081;DHT22;11708;50.570;8.532;2023-01-10T01:57:03;6.00;99.90
23081;DHT22;11708;50.570;8.532;2023-01-10T01:59:36;6.00;99.90
23081;DHT22;11708;50.570;8.532;2023-01-10T02:02:07;6.00;99.90
23081;DHT22;11708;50.570;8.532;2023-01-10T02:04:47;6.00;99.90
23081;DHT22;11708;50.570;8.532;2023-01-10T02:07:14;6.00;99.90
23081;DHT22;11708;50.570;8.532;2023-01-10T02:09:49;5.90;99.90
23081;DHT22;11708;50.570;8.532;2023-01-10T02:12:16;5.90;99.90
23081;DHT22;11708;50.570;8.532;2023-01-10T02:14:42;5.90;99.90
23081;DHT22;11708;50.570;8.532;2023-01-10T02:17:10;5.90;99.90
23081;DHT22;11708;50.570;8.532;2023-01-10T02:19:56;5.90;99.90
23081;DHT22;11708;50.570;8.532;2023-01-10T02:42:51;6.00;99.90
23081;DHT22;11708;50.570;8.532;2023-01-10T02:45:42;6.00;99.90
23081;DHT22;11708;50.570;8.532;2023-01-10T02:48:08;6.00;99.90
23081;DHT22;11708;50.570;8.532;2023-01-10T02:53:27;5.80;99.90
23081;DHT22;11708;50.570;8.532;2023-01-10T02:56:12;5.90;99.90
23081;DHT22;11708;50.570;8.532;2023-01-10T02:58:46;5.90;99.90
23081;DHT22;11708;50.570;8.532;2023-01-10T03:06:45;5.80;99.90
23081;DHT22;11708;50.570;8.532;2023-01-10T03:09:39;5.70;99.90
23081;DHT22;11708;50.570;8.532;2023-01-10T03:12:13;5.80;99.90
23081;DHT22;11708;50.570;8.532;2023-01-10T03:14:41;5.70;99.90
23081;DHT22;11708;50.570;8.532;2023-01-10T03:17:10;5.80;99.90
23081;DHT22;11708;50.570;8.532;2023-01-10T03:19:43;5.70;99.90
23081;DHT22;11708;50.570;8.532;2023-01-10T03:22:12;5.70;99.90
23081;DHT22;11708;50.570;8.532;2023-01-10T03:24:46;5.70;99.90
23081;DHT22;11708;50.570;8.532;2023-01-10T03:32:20;5.70;99.90
23081;DHT22;11708;50.570;8.532;2023-01-10T03:34:50;5.70;99.90
23081;DHT22;11708;50.570;8.532;2023-01-10T03:37:41;5.70;99.90
23081;DHT22;11708;50.570;8.532;2023-01-10T03:46:32;5.70;99.90
23081;DHT22;11708;50.570;8.532;2023-01-10T03:49:03;5.70;99.90
23081;DHT22;11708;50.570;8.532;2023-01-10T03:51:30;5.70;99.90
23081;DHT22;11708;50.570;8.532;2023-01-10T03:54:03;5.70;99.90
23081;DHT22;11708;50.570;8.532;2023-01-10T03:56:29;5.70;99.90
23081;DHT22;11708;50.570;8.532;2023-01-10T03:58:55;5.70;99.90
23081;DHT22;11708;50.570;8.532;2023-01-10T04:01:21;5.70;99.90
23081;DHT22;11708;50.570;8.532;2023-01-10T04:03:46;5.70;99.90
23081;DHT22;11708;50.570;8.532;2023-01-10T04:06:12;5.70;99.90
23081;DHT22;11708;50.570;8.532;2023-01-10T04:08:37;5.60;99.90
23081;DHT22;11708;50.570;8.532;2023-01-10T04:11:03;5.60;99.90
23081;DHT22;11708;50.570;8.532;2023-01-10T04:13:28;5.70;99.90
23081;DHT22;11708;50.570;8.532;2023-01-10T04:15:54;5.60;99.90
23081;DHT22;11708;50.570;8.532;2023-01-10T04:18:21;5.60;99.90
23081;DHT22;11708;50.570;8.532;2023-01-10T04:20:46;5.70;99.90
23081;DHT22;11708;50.570;8.532;2023-01-10T04:23:12;5.90;99.90
23081;DHT22;11708;50.570;8.532;2023-01-10T04:25:37;5.80;99.90
23081;DHT22;11708;50.570;8.532;2023-01-10T04:28:03;5.80;99.90
23081;DHT22;11708;50.570;8.532;2023-01-10T04:30:28;5.90;99.90
23081;DHT22;11708;50.570;8.532;2023-01-10T04:32:54;5.90;99.90
23081;DHT22;11708;50.570;8.532;2023-01-10T04:35:19;6.00;99.90
23081;DHT22;11708;50.570;8.532;2023-01-10T04:37:45;6.00;99.90
23081;DHT22;11708;50.570;8.532;2023-01-10T04:40:10;6.00;99.90
23081;DHT22;11708;50.570;8.532;2023-01-10T04:42:37;6.10;99.90
23081;DHT22;11708;50.570;8.532;2023-01-10T04:45:03;6.10;99.90
23081;DHT22;11708;50.570;8.532;2023-01-10T04:47:28;6.10;99.90
23081;DHT22;11708;50.570;8.532;2023-01-10T04:52:20;6.00;99.90
23081;DHT22;11708;50.570;8.532;2023-01-10T04:54:45;6.10;99.90
23081;DHT22;11708;50.570;8.532;2023-01-10T04:57:11;6.10;99.90
23081;DHT22;11708;50.570;8.532;2023-01-10T04:59:36;6.30;99.90
23081;DHT22;11708;50.570;8.532;2023-01-10T05:04:28;6.10;99.90
23081;DHT22;11708;50.570;8.532;2023-01-10T05:06:54;6.10;99.90
23081;DHT22;11708;50.570;8.532;2023-01-10T05:09:19;6.00;99.90
23081;DHT22;11708;50.570;8.532;2023-01-10T05:14:11;6.00;99.90
23081;DHT22;11708;50.570;8.532;2023-01-10T05:21:28;6.00;99.90
23081;DHT22;11708;50.570;8.532;2023-01-10T05:23:54;5.90;99.90
23081;DHT22;11708;50.570;8.532;2023-01-10T05:26:21;5.90;99.90
23081;DHT22;11708;50.570;8.532;2023-01-10T05:28:47;5.90;99.90
23081;DHT22;11708;50.570;8.532;2023-01-10T05:31:15;5.90;99.90
23081;DHT22;11708;50.570;8.532;2023-01-10T05:33:46;5.90;99.90
23081;DHT22;11708;50.570;8.532;2023-01-10T05:41:04;5.90;99.90
23081;DHT22;11708;50.570;8.532;2023-01-10T05:43:30;5.80;99.90
23081;DHT22;11708;50.570;8.532;2023-01-10T05:45:55;5.80;99.90
23081;DHT22;11708;50.570;8.532;2023-01-10T05:50:49;5.80;99.90
23081;DHT22;11708;50.570;8.532;2023-01-10T05:55:40;5.80;99.90
23081;DHT22;11708;50.570;8.532;2023-01-10T06:00:32;5.80;99.90
23081;DHT22;11708;50.570;8.532;2023-01-10T06:02:58;5.90;99.90
23081;DHT22;11708;50.570;8.532;2023-01-10T06:05:24;5.80;99.90
23081;DHT22;11708;50.570;8.532;2023-01-10T06:07:50;5.80;99.90
23081;DHT22;11708;50.570;8.532;2023-01-10T06:10:16;5.80;99.90
23081;DHT22;11708;50.570;8.532;2023-01-10T06:12:42;5.70;99.90
23081;DHT22;11708;50.570;8.532;2023-01-10T06:15:08;5.80;99.90
23081;DHT22;11708;50.570;8.532;2023-01-10T06:17:35;5.80;99.90
23081;DHT22;11708;50.570;8.532;2023-01-10T06:20:01;5.80;99.90
23081;DHT22;11708;50.570;8.532;2023-01-10T06:22:27;5.80;99.90
23081;DHT22;11708;50.570;8.532;2023-01-10T06:24:53;5.80;99.90
23081;DHT22;11708;50.570;8.532;2023-01-10T06:29:45;5.80;99.90
23081;DHT22;11708;50.570;8.532;2023-01-10T06:32:11;5.80;99.90
23081;DHT22;11708;50.570;8.532;2023-01-10T06:34:36;5.80;99.90
23081;DHT22;11708;50.570;8.532;2023-01-10T06:37:02;5.80;99.90
23081;DHT22;11708;50.570;8.532;2023-01-10T06:39:27;5.80;99.90
23081;DHT22;11708;50.570;8.532;2023-01-10T06:44:21;5.80;99.90
23081;DHT22;11708;50.570;8.532;2023-01-10T06:46:47;5.80;99.90
23081;DHT22;11708;50.570;8.532;2023-01-10T06:49:12;5.80;99.90
23081;DHT22;11708;50.570;8.532;2023-01-10T06:54:04;5.80;99.90
23081;DHT22;11708;50.570;8.532;2023-01-10T06:56:29;6.20;99.90
23081;DHT22;11708;50.570;8.532;2023-01-10T06:58:55;5.90;99.90
23081;DHT22;11708;50.570;8.532;2023-01-10T07:01:20;5.80;99.90
23081;DHT22;11708;50.570;8.532;2023-01-10T07:03:47;5.80;99.90
23081;DHT22;11708;50.570;8.532;2023-01-10T07:08:40;5.70;99.90
23081;DHT22;11708;50.570;8.532;2023-01-10T07:11:07;5.70;99.90
23081;DHT22;11708;50.570;8.532;2023-01-10T07:13:33;5.70;99.90
23081;DHT22;11708;50.570;8.532;2023-01-10T07:16:08;5.70;99.90
23081;DHT22;11708;50.570;8.532;2023-01-10T07:18:35;5.70;99.90
23081;DHT22;11708;50.570;8.532;2023-01-10T07:21:01;5.70;99.90
23081;DHT22;11708;50.570;8.532;2023-01-10T07:23:27;5.70;99.90
23081;DHT22;11708;50.570;8.532;2023-01-10T07:25:55;5.70;99.90
23081;DHT22;11708;50.570;8.532;2023-01-10T07:28:21;5.70;99.90
23081;DHT22;11708;50.570;8.532;2023-01-10T07:30:46;5.70;99.90
23081;DHT22;11708;50.570;8.532;2023-01-10T07:33:12;5.90;99.90
23081;DHT22;11708;50.570;8.532;2023-01-10T07:35:38;5.70;99.90
23081;DHT22;11708;50.570;8.532;2023-01-10T07:38:04;5.70;99.90
23081;DHT22;11708;50.570;8.532;2023-01-10T07:40:29;5.70;99.90
23081;DHT22;11708;50.570;8.532;2023-01-10T07:42:57;5.70;99.90
23081;DHT22;11708;50.570;8.532;2023-01-10T07:45:22;6.00;99.90
23081;DHT22;11708;50.570;8.532;2023-01-10T07:47:48;5.70;99.90
23081;DHT22;11708;50.570;8.532;2023-01-10T07:50:14;5.70;99.90
23081;DHT22;11708;50.570;8.532;2023-01-10T07:52:40;5.60;99.90
23081;DHT22;11708;50.570;8.532;2023-01-10T07:55:06;5.60;99.90
23081;DHT22;11708;50.570;8.532;2023-01-10T07:57:31;5.70;99.90
23081;DHT22;11708;50.570;8.532;2023-01-10T08:02:23;5.70;99.90
23081;DHT22;11708;50.570;8.532;2023-01-10T08:04:48;5.70;99.90
23081;DHT22;11708;50.570;8.532;2023-01-10T08:07:14;5.70;99.90
23081;DHT22;11708;50.570;8.532;2023-01-10T08:09:39;5.70;99.90
23081;DHT22;11708;50.570;8.532;2023-01-10T08:12:05;5.70;99.90
23081;DHT22;11708;50.570;8.532;2023-01-10T08:14:30;5.60;99.90
23081;DHT22;11708;50.570;8.532;2023-01-10T08:16:56;5.70;99.90
23081;DHT22;11708;50.570;8.532;2023-01-10T08:21:47;5.60;99.90
23081;DHT22;11708;50.570;8.532;2023-01-10T08:24:13;5.70;99.90
23081;DHT22;11708;50.570;8.532;2023-01-10T08:26:38;5.70;99.90
23081;DHT22;11708;50.570;8.532;2023-01-10T08:29:04;5.70;99.90
23081;DHT22;11708;50.570;8.532;2023-01-10T08:31:29;5.70;99.90
23081;DHT22;11708;50.570;8.532;2023-01-10T08:33:55;5.60;99.90
23081;DHT22;11708;50.570;8.532;2023-01-10T08:36:21;5.60;99.90
23081;DHT22;11708;50.570;8.532;2023-01-10T08:38:47;5.60;99.90
23081;DHT22;11708;50.570;8.532;2023-01-10T08:41:12;5.50;99.90
23081;DHT22;11708;50.570;8.532;2023-01-10T08:43:38;5.50;99.90
23081;DHT22;11708;50.570;8.532;2023-01-10T08:46:05;5.50;99.90
23081;DHT22;11708;50.570;8.532;2023-01-10T08:48:30;5.60;99.90
23081;DHT22;11708;50.570;8.532;2023-01-10T08:50:56;5.60;99.90
23081;DHT22;11708;50.570;8.532;2023-01-10T08:53:22;5.60;99.90
23081;DHT22;11708;50.570;8.532;2023-01-10T08:55:48;5.60;99.90
23081;DHT22;11708;50.570;8.532;2023-01-10T08:58:14;5.60;99.90
23081;DHT22;11708;50.570;8.532;2023-01-10T09:00:41;5.70;99.90
23081;DHT22;11708;50.570;8.532;2023-01-10T09:05:33;5.80;99.90
23081;DHT22;11708;50.570;8.532;2023-01-10T09:08:00;5.80;99.90
23081;DHT22;11708;50.570;8.532;2023-01-10T09:10:28;5.90;99.90
23081;DHT22;11708;50.570;8.532;2023-01-10T09:15:26;6.00;99.90
23081;DHT22;11708;50.570;8.532;2023-01-10T09:17:56;6.00;99.90
23081;DHT22;11708;50.570;8.532;2023-01-10T09:20:24;6.10;99.90
23081;DHT22;11708;50.570;8.532;2023-01-10T09:25:16;6.10;99.90
23081;DHT22;11708;50.570;8.532;2023-01-10T09:27:41;6.00;99.90
23081;DHT22;11708;50.570;8.532;2023-01-10T09:30:07;6.10;99.90
23081;DHT22;11708;50.570;8.532;2023-01-10T09:34:59;6.10;99.90
23081;DHT22;11708;50.570;8.532;2023-01-10T09:37:25;6.10;99.90
23081;DHT22;11708;50.570;8.532;2023-01-10T09:39:50;6.00;99.90
23081;DHT22;11708;50.570;8.532;2023-01-10T09:42:39;6.00;99.90
23081;DHT22;11708;50.570;8.532;2023-01-10T09:45:26;6.00;99.90
23081;DHT22;11708;50.570;8.532;2023-01-10T09:53:40;6.00;99.90
23081;DHT22;11708;50.570;8.532;2023-01-10T09:56:07;6.00;99.90
23081;DHT22;11708;50.570;8.532;2023-01-10T09:58:34;6.00;99.90
23081;DHT22;11708;50.570;8.532;2023-01-10T10:01:16;6.00;99.90
23081;DHT22;11708;50.570;8.532;2023-01-10T10:04:05;6.10;99.90
23081;DHT22;11708;50.570;8.532;2023-01-10T10:06:31;6.20;99.90
23081;DHT22;11708;50.570;8.532;2023-01-10T10:08:58;6.20;99.90
23081;DHT22;11708;50.570;8.532;2023-01-10T10:14:02;6.30;99.90
23081;DHT22;11708;50.570;8.532;2023-01-10T10:19:32;6.40;99.90
23081;DHT22;11708;50.570;8.532;2023-01-10T10:22:23;6.50;99.90
23081;DHT22;11708;50.570;8.532;2023-01-10T10:25:25;6.50;99.90
23081;DHT22;11708;50.570;8.532;2023-01-10T10:27:59;6.60;99.90
23081;DHT22;11708;50.570;8.532;2023-01-10T10:31:06;6.80;99.90
23081;DHT22;11708;50.570;8.532;2023-01-10T10:34:28;6.80;99.90
23081;DHT22;11708;50.570;8.532;2023-01-10T10:36:58;6.80;99.90
23081;DHT22;11708;50.570;8.532;2023-01-10T10:39:53;6.90;99.90
23081;DHT22;11708;50.570;8.532;2023-01-10T10:42:20;6.80;99.90
23081;DHT22;11708;50.570;8.532;2023-01-10T10:44:49;6.80;99.90
23081;DHT22;11708;50.570;8.532;2023-01-10T10:47:19;6.90;99.90
23081;DHT22;11708;50.570;8.532;2023-01-10T10:50:07;6.80;99.90
23081;DHT22;11708;50.570;8.532;2023-01-10T10:52:36;6.80;99.90
23081;DHT22;11708;50.570;8.532;2023-01-10T10:55:06;6.90;99.90
23081;DHT22;11708;50.570;8.532;2023-01-10T10:57:37;6.90;99.90
23081;DHT22;11708;50.570;8.532;2023-01-10T11:00:17;6.80;99.90
23081;DHT22;11708;50.570;8.532;2023-01-10T11:05:44;6.80;99.90
23081;DHT22;11708;50.570;8.532;2023-01-10T11:08:12;6.80;99.90
23081;DHT22;11708;50.570;8.532;2023-01-10T11:10:42;6.80;99.90
23081;DHT22;11708;50.570;8.532;2023-01-10T11:13:14;6.90;99.90
23081;DHT22;11708;50.570;8.532;2023-01-10T11:15:44;7.00;99.90
23081;DHT22;11708;50.570;8.532;2023-01-10T11:18:19;6.90;99.90
23081;DHT22;11708;50.570;8.532;2023-01-10T11:20:57;7.00;99.90
23081;DHT22;11708;50.570;8.532;2023-01-10T11:23:48;7.00;99.90
23081;DHT22;11708;50.570;8.532;2023-01-10T11:26:26;7.00;99.90
23081;DHT22;11708;50.570;8.532;2023-01-10T11:29:06;7.10;99.90
23081;DHT22;11708;50.570;8.532;2023-01-10T11:31:33;7.20;99.90
23081;DHT22;11708;50.570;8.532;2023-01-10T11:34:05;7.20;99.90
23081;DHT22;11708;50.570;8.532;2023-01-10T11:37:22;7.20;99.90
23081;DHT22;11708;50.570;8.532;2023-01-10T11:47:46;7.50;99.90
23081;DHT22;11708;50.570;8.532;2023-01-10T11:50:19;7.60;99.90
23081;DHT22;11708;50.570;8.532;2023-01-10T11:52:47;7.60;99.90
23081;DHT22;11708;50.570;8.532;2023-01-10T11:55:23;7.70;99.90
23081;DHT22;11708;50.570;8.532;2023-01-10T11:58:11;7.70;99.90
23081;DHT22;11708;50.570;8.532;2023-01-10T12:00:46;7.70;99.90
23081;DHT22;11708;50.570;8.532;2023-01-10T12:06:13;7.70;99.90
23081;DHT22;11708;50.570;8.532;2023-01-10T12:08:40;7.80;99.90
23081;DHT22;11708;50.570;8.532;2023-01-10T12:11:21;7.80;99.90
23081;DHT22;11708;50.570;8.532;2023-01-10T12:13:51;7.90;99.90
23081;DHT22;11708;50.570;8.532;2023-01-10T12:16:31;8.00;99.90
23081;DHT22;11708;50.570;8.532;2023-01-10T12:18:59;8.00;99.90
23081;DHT22;11708;50.570;8.532;2023-01-10T12:23:57;7.90;99.90
23081;DHT22;11708;50.570;8.532;2023-01-10T12:26:28;7.90;99.90
23081;DHT22;11708;50.570;8.532;2023-01-10T12:28:56;7.90;99.90
23081;DHT22;11708;50.570;8.532;2023-01-10T12:31:24;7.80;99.90
23081;DHT22;11708;50.570;8.532;2023-01-10T12:34:15;7.70;99.90
23081;DHT22;11708;50.570;8.532;2023-01-10T12:39:35;7.70;99.90
23081;DHT22;11708;50.570;8.532;2023-01-10T12:45:12;7.80;99.90
23081;DHT22;11708;50.570;8.532;2023-01-10T12:50:40;7.70;99.90
23081;DHT22;11708;50.570;8.532;2023-01-10T12:55:43;7.80;99.90
23081;DHT22;11708;50.570;8.532;2023-01-10T12:58:29;7.90;99.90
23081;DHT22;11708;50.570;8.532;2023-01-10T13:00:58;7.80;99.90
23081;DHT22;11708;50.570;8.532;2023-01-10T13:03:28;7.80;99.90
23081;DHT22;11708;50.570;8.532;2023-01-10T13:05:56;7.70;99.90
23081;DHT22;11708;50.570;8.532;2023-01-10T13:08:29;7.70;99.90
23081;DHT22;11708;50.570;8.532;2023-01-10T13:10:57;7.70;99.90
23081;DHT22;11708;50.570;8.532;2023-01-10T13:13:42;7.60;99.90
23081;DHT22;11708;50.570;8.532;2023-01-10T13:22:17;7.60;99.90
23081;DHT22;11708;50.570;8.532;2023-01-10T13:24:54;7.70;99.90
23081;DHT22;11708;50.570;8.532;2023-01-10T13:27:20;7.60;99.90
23081;DHT22;11708;50.570;8.532;2023-01-10T13:29:45;7.50;99.90
23081;DHT22;11708;50.570;8.532;2023-01-10T13:32:22;7.50;99.90
23081;DHT22;11708;50.570;8.532;2023-01-10T13:35:16;7.50;99.90
23081;DHT22;11708;50.570;8.532;2023-01-10T13:37:44;7.40;99.90
23081;DHT22;11708;50.570;8.532;2023-01-10T13:40:23;7.40;99.90
23081;DHT22;11708;50.570;8.532;2023-01-10T13:48:40;7.30;99.90
23081;DHT22;11708;50.570;8.532;2023-01-10T13:51:14;7.30;99.90
23081;DHT22;11708;50.570;8.532;2023-01-10T13:53:44;7.40;99.90
23081;DHT22;11708;50.570;8.532;2023-01-10T13:56:37;7.40;99.90
23081;DHT22;11708;50.570;8.532;2023-01-10T14:02:24;7.40;99.90
23081;DHT22;11708;50.570;8.532;2023-01-10T14:04:55;7.40;99.90
23081;DHT22;11708;50.570;8.532;2023-01-10T14:07:43;7.40;99.90
23081;DHT22;11708;50.570;8.532;2023-01-10T14:10:27;7.40;99.90
23081;DHT22;11708;50.570;8.532;2023-01-10T14:13:04;7.40;99.90
23081;DHT22;11708;50.570;8.532;2023-01-10T14:15:38;7.50;99.90
23081;DHT22;11708;50.570;8.532;2023-01-10T14:18:14;7.50;99.90
23081;DHT22;11708;50.570;8.532;2023-01-10T14:20:42;7.50;99.90
23081;DHT22;11708;50.570;8.532;2023-01-10T14:23:18;7.30;99.90
23081;DHT22;11708;50.570;8.532;2023-01-10T14:25:46;7.50;99.90
23081;DHT22;11708;50.570;8.532;2023-01-10T14:28:28;7.50;99.90
23081;DHT22;11708;50.570;8.532;2023-01-10T14:31:06;7.50;99.90
23081;DHT22;11708;50.570;8.532;2023-01-10T14:33:33;7.60;99.90
23081;DHT22;11708;50.570;8.532;2023-01-10T14:36:08;7.60;99.90
23081;DHT22;11708;50.570;8.532;2023-01-10T14:38:38;7.60;99.90
23081;DHT22;11708;50.570;8.532;2023-01-10T14:41:10;7.60;99.90
23081;DHT22;11708;50.570;8.532;2023-01-10T14:43:42;7.60;99.90
23081;DHT22;11708;50.570;8.532;2023-01-10T14:46:16;7.60;99.90
23081;DHT22;11708;50.570;8.532;2023-01-10T14:48:49;9.80;99.90
23081;DHT22;11708;50.570;8.532;2023-01-10T14:53:47;7.50;99.90
23081;DHT22;11708;50.570;8.532;2023-01-10T14:56:24;7.50;99.90
23081;DHT22;11708;50.570;8.532;2023-01-10T14:58:50;7.50;99.90
23081;DHT22;11708;50.570;8.532;2023-01-10T15:01:26;7.50;99.90
23081;DHT22;11708;50.570;8.532;2023-01-10T15:03:52;7.50;99.90
23081;DHT22;11708;50.570;8.532;2023-01-10T15:06:21;7.50;99.90
23081;DHT22;11708;50.570;8.532;2023-01-10T15:08:55;7.50;99.90
23081;DHT22;11708;50.570;8.532;2023-01-10T15:11:29;7.40;99.90
23081;DHT22;11708;50.570;8.532;2023-01-10T15:14:00;7.40;99.90
23081;DHT22;11708;50.570;8.532;2023-01-10T15:16:28;7.30;99.90
23081;DHT22;11708;50.570;8.532;2023-01-10T15:18:54;7.30;99.90
23081;DHT22;11708;50.570;8.532;2023-01-10T15:21:23;7.20;99.90
23081;DHT22;11708;50.570;8.532;2023-01-10T15:23:50;7.20;99.90
23081;DHT22;11708;50.570;8.532;2023-01-10T15:26:28;7.20;99.90
23081;DHT22;11708;50.570;8.532;2023-01-10T15:29:22;7.10;99.90
23081;DHT22;11708;50.570;8.532;2023-01-10T15:31:48;7.10;99.90
23081;DHT22;11708;50.570;8.532;2023-01-10T15:34:17;7.10;99.90
23081;DHT22;11708;50.570;8.532;2023-01-10T15:36:55;7.10;99.90
23081;DHT22;11708;50.570;8.532;2023-01-10T15:39:25;7.10;99.90
23081;DHT22;11708;50.570;8.532;2023-01-10T15:41:57;7.00;99.90
23081;DHT22;11708;50.570;8.532;2023-01-10T15:44:36;7.00;99.90
23081;DHT22;11708;50.570;8.532;2023-01-10T15:47:04;6.90;99.90
23081;DHT22;11708;50.570;8.532;2023-01-10T15:49:32;6.90;99.90
23081;DHT22;11708;50.570;8.532;2023-01-10T15:51:58;6.90;99.90
23081;DHT22;11708;50.570;8.532;2023-01-10T15:56:57;6.80;99.90
23081;DHT22;11708;50.570;8.532;2023-01-10T15:59:45;6.70;99.90
23081;DHT22;11708;50.570;8.532;2023-01-10T16:04:57;6.70;99.90
23081;DHT22;11708;50.570;8.532;2023-01-10T16:07:35;6.80;99.90
23081;DHT22;11708;50.570;8.532;2023-01-10T16:10:14;6.80;99.90
23081;DHT22;11708;50.570;8.532;2023-01-10T16:12:42;6.70;99.90
23081;DHT22;11708;50.570;8.532;2023-01-10T16:15:32;6.70;99.90
23081;DHT22;11708;50.570;8.532;2023-01-10T16:18:00;6.70;99.90
23081;DHT22;11708;50.570;8.532;2023-01-10T16:20:29;6.70;99.90
23081;DHT22;11708;50.570;8.532;2023-01-10T16:22:56;6.70;99.90
23081;DHT22;11708;50.570;8.532;2023-01-10T16:25:35;6.70;99.90
23081;DHT22;11708;50.570;8.532;2023-01-10T16:28:03;6.70;99.90
23081;DHT22;11708;50.570;8.532;2023-01-10T16:30:31;6.70;99.90
23081;DHT22;11708;50.570;8.532;2023-01-10T16:33:02;6.80;99.90
23081;DHT22;11708;50.570;8.532;2023-01-10T16:35:33;6.80;99.90
23081;DHT22;11708;50.570;8.532;2023-01-10T16:37:58;6.70;99.90
23081;DHT22;11708;50.570;8.532;2023-01-10T16:40:34;6.80;99.90
23081;DHT22;11708;50.570;8.532;2023-01-10T16:43:01;6.80;99.90
23081;DHT22;11708;50.570;8.532;2023-01-10T16:45:51;6.70;99.90
23081;DHT22;11708;50.570;8.532;2023-01-10T16:48:18;6.70;99.90
23081;DHT22;11708;50.570;8.532;2023-01-10T16:50:45;6.70;99.90
23081;DHT22;11708;50.570;8.532;2023-01-10T16:53:14;6.70;99.90
23081;DHT22;11708;50.570;8.532;2023-01-10T16:58:11;6.70;99.90
23081;DHT22;11708;50.570;8.532;2023-01-10T17:00:38;6.70;99.90
23081;DHT22;11708;50.570;8.532;2023-01-10T17:03:09;6.50;99.90
23081;DHT22;11708;50.570;8.532;2023-01-10T17:05:36;6.70;99.90
23081;DHT22;11708;50.570;8.532;2023-01-10T17:08:05;6.70;99.90
23081;DHT22;11708;50.570;8.532;2023-01-10T17:10:33;6.90;99.90
23081;DHT22;11708;50.570;8.532;2023-01-10T17:13:01;6.70;99.90
23081;DHT22;11708;50.570;8.532;2023-01-10T17:15:28;6.80;99.90
23081;DHT22;11708;50.570;8.532;2023-01-10T17:17:54;6.70;99.90
23081;DHT22;11708;50.570;8.532;2023-01-10T17:20:20;6.70;99.90
23081;DHT22;11708;50.570;8.532;2023-01-10T17:22:45;6.70;99.90
23081;DHT22;11708;50.570;8.532;2023-01-10T17:25:13;6.70;99.90
23081;DHT22;11708;50.570;8.532;2023-01-10T17:27:40;7.00;99.90
23081;DHT22;11708;50.570;8.532;2023-01-10T17:30:06;6.70;99.90
23081;DHT22;11708;50.570;8.532;2023-01-10T17:32:34;6.80;99.90
23081;DHT22;11708;50.570;8.532;2023-01-10T17:34:59;6.80;99.90
23081;DHT22;11708;50.570;8.532;2023-01-10T17:37:27;6.80;99.90
23081;DHT22;11708;50.570;8.532;2023-01-10T17:39:52;6.80;99.90
23081;DHT22;11708;50.570;8.532;2023-01-10T17:42:18;6.80;99.90
23081;DHT22;11708;50.570;8.532;2023-01-10T17:44:43;6.80;99.90
23081;DHT22;11708;50.570;8.532;2023-01-10T17:49:35;6.80;99.90
23081;DHT22;11708;50.570;8.532;2023-01-10T17:52:01;6.80;99.90
23081;DHT22;11708;50.570;8.532;2023-01-10T17:54:27;6.80;99.90
23081;DHT22;11708;50.570;8.532;2023-01-10T17:56:52;6.80;99.90
23081;DHT22;11708;50.570;8.532;2023-01-10T17:59:18;6.80;99.90
23081;DHT22;11708;50.570;8.532;2023-01-10T18:01:44;6.80;99.90
23081;DHT22;11708;50.570;8.532;2023-01-10T18:04:10;6.80;99.90
23081;DHT22;11708;50.570;8.532;2023-01-10T18:06:35;6.90;99.90
23081;DHT22;11708;50.570;8.532;2023-01-10T18:09:01;6.90;99.90
23081;DHT22;11708;50.570;8.532;2023-01-10T18:11:28;6.90;99.90
23081;DHT22;11708;50.570;8.532;2023-01-10T18:13:56;6.90;99.90
23081;DHT22;11708;50.570;8.532;2023-01-10T18:16:22;6.90;99.90
23081;DHT22;11708;50.570;8.532;2023-01-10T18:18:48;6.90;99.90
23081;DHT22;11708;50.570;8.532;2023-01-10T18:21:16;6.90;99.90
23081;DHT22;11708;50.570;8.532;2023-01-10T18:23:42;6.90;99.90
23081;DHT22;11708;50.570;8.532;2023-01-10T18:26:10;6.90;99.90
23081;DHT22;11708;50.570;8.532;2023-01-10T18:28:41;6.90;99.90
23081;DHT22;11708;50.570;8.532;2023-01-10T18:31:12;6.90;99.90
23081;DHT22;11708;50.570;8.532;2023-01-10T18:33:38;6.90;99.90
23081;DHT22;11708;50.570;8.532;2023-01-10T18:36:05;6.90;99.90
23081;DHT22;11708;50.570;8.532;2023-01-10T18:38:32;6.90;99.90
23081;DHT22;11708;50.570;8.532;2023-01-10T18:40:59;6.90;99.90